SWA1887 KBNA-KMYR
Flight info
| Callsign | SWA1887 |
|---|---|
| Flight time | 1h 3m |
| Altitude | 39000 |
| Route | TAZMO4 BURME SPA FLO |
| Aircraft | B737/M-SADE2E3GIJ4RWZ/LB1D1 |
Departure
| Time | 2026-04-22 15:46 |
|---|---|
| Airport | Nashville International Airport (KBNA) |
Arrival
| Time | 2026-04-22 16:49 |
|---|---|
| Airport | Myrtle Beach International Airport (KMYR) |
| Time | Latitude | Longitude | Altitude | Speed | Heading |
|---|---|---|---|---|---|
| 2026-04-22 15:31 | 36.12954 | -86.66791 | 568 ft | 0 kts | 41° |
| 2026-04-22 15:36 | 36.12941 | -86.66806 | 572 ft | 4 kts | 47° |
| 2026-04-22 15:37 | 36.12926 | -86.66833 | 571 ft | 4 kts | 78° |
| 2026-04-22 15:37 | 36.12929 | -86.66856 | 568 ft | 1 kts | 131° |
| 2026-04-22 15:39 | 36.12929 | -86.66855 | 568 ft | 0 kts | 131° |
| 2026-04-22 15:40 | 36.12917 | -86.66840 | 572 ft | 4 kts | 133° |
| 2026-04-22 15:40 | 36.12895 | -86.66811 | 573 ft | 5 kts | 133° |
| 2026-04-22 15:40 | 36.12870 | -86.66776 | 569 ft | 7 kts | 135° |
| 2026-04-22 15:40 | 36.12816 | -86.66740 | 568 ft | 11 kts | 163° |
| 2026-04-22 15:41 | 36.12745 | -86.66750 | 569 ft | 11 kts | 206° |
| 2026-04-22 15:41 | 36.12687 | -86.66803 | 571 ft | 10 kts | 225° |
| 2026-04-22 15:41 | 36.12630 | -86.66852 | 571 ft | 10 kts | 210° |
| 2026-04-22 15:41 | 36.12567 | -86.66896 | 576 ft | 11 kts | 209° |
| 2026-04-22 15:42 | 36.12493 | -86.66948 | 575 ft | 13 kts | 207° |
| 2026-04-22 15:42 | 36.12416 | -86.66911 | 570 ft | 14 kts | 134° |
| 2026-04-22 15:42 | 36.12349 | -86.66804 | 573 ft | 17 kts | 110° |
| 2026-04-22 15:42 | 36.12307 | -86.66645 | 567 ft | 21 kts | 108° |
| 2026-04-22 15:43 | 36.12300 | -86.66510 | 567 ft | 15 kts | 44° |
| 2026-04-22 15:43 | 36.12396 | -86.66461 | 569 ft | 17 kts | 18° |
| 2026-04-22 15:43 | 36.12521 | -86.66411 | 571 ft | 21 kts | 18° |
| 2026-04-22 15:43 | 36.12665 | -86.66354 | 568 ft | 23 kts | 17° |
| 2026-04-22 15:44 | 36.12827 | -86.66289 | 560 ft | 24 kts | 18° |
| 2026-04-22 15:44 | 36.12982 | -86.66228 | 565 ft | 23 kts | 19° |
| 2026-04-22 15:44 | 36.13131 | -86.66168 | 558 ft | 22 kts | 18° |
| 2026-04-22 15:44 | 36.13282 | -86.66107 | 557 ft | 23 kts | 18° |
| 2026-04-22 15:45 | 36.13376 | -86.66034 | 549 ft | 15 kts | 89° |
| 2026-04-22 15:45 | 36.13330 | -86.65945 | 549 ft | 13 kts | 181° |
| 2026-04-22 15:45 | 36.13227 | -86.65985 | 550 ft | 30 kts | 198° |
| 2026-04-22 15:45 | 36.12767 | -86.66171 | 562 ft | 107 kts | 197° |
| 2026-04-22 15:46 | 36.11870 | -86.66521 | 643 ft | 160 kts | 199° |
| 2026-04-22 15:46 | 36.10706 | -86.66972 | 1189 ft | 185 kts | 201° |
| 2026-04-22 15:46 | 36.09482 | -86.67430 | 2233 ft | 176 kts | 199° |
| 2026-04-22 15:46 | 36.08174 | -86.67459 | 2720 ft | 212 kts | 168° |
| 2026-04-22 15:47 | 36.06649 | -86.66886 | 3041 ft | 247 kts | 166° |
| 2026-04-22 15:47 | 36.04894 | -86.66253 | 3704 ft | 263 kts | 168° |
| 2026-04-22 15:47 | 36.03153 | -86.65646 | 4800 ft | 264 kts | 169° |
| 2026-04-22 15:47 | 36.01373 | -86.65035 | 5750 ft | 270 kts | 167° |
| 2026-04-22 15:48 | 35.99680 | -86.63949 | 6534 ft | 281 kts | 144° |
| 2026-04-22 15:48 | 35.98415 | -86.62087 | 6976 ft | 288 kts | 121° |
| 2026-04-22 15:48 | 35.97777 | -86.59721 | 7021 ft | 295 kts | 96° |
| 2026-04-22 15:48 | 35.97675 | -86.57147 | 7015 ft | 296 kts | 92° |
| 2026-04-22 15:49 | 35.97641 | -86.54641 | 7012 ft | 297 kts | 92° |
| 2026-04-22 15:49 | 35.97600 | -86.52098 | 7007 ft | 296 kts | 92° |
| 2026-04-22 15:49 | 35.97550 | -86.49568 | 6998 ft | 294 kts | 92° |
| 2026-04-22 15:49 | 35.97527 | -86.47049 | 7004 ft | 293 kts | 86° |
| 2026-04-22 15:50 | 35.97990 | -86.44597 | 7114 ft | 296 kts | 72° |
| 2026-04-22 15:50 | 35.98616 | -86.42150 | 7945 ft | 299 kts | 72° |
| 2026-04-22 15:50 | 35.99241 | -86.39708 | 9125 ft | 299 kts | 72° |
| 2026-04-22 15:50 | 35.99861 | -86.37262 | 10238 ft | 300 kts | 72° |
| 2026-04-22 15:51 | 36.00495 | -86.34728 | 10811 ft | 321 kts | 73° |
| 2026-04-22 15:51 | 36.01174 | -86.31981 | 11227 ft | 344 kts | 73° |
| 2026-04-22 15:51 | 36.01874 | -86.29138 | 12161 ft | 347 kts | 73° |
| 2026-04-22 15:51 | 36.02571 | -86.26277 | 13239 ft | 348 kts | 73° |
| 2026-04-22 15:52 | 36.03279 | -86.23374 | 14115 ft | 357 kts | 73° |
| 2026-04-22 15:52 | 36.04001 | -86.20426 | 15006 ft | 361 kts | 72° |
| 2026-04-22 15:52 | 36.04726 | -86.17449 | 15971 ft | 363 kts | 72° |
| 2026-04-22 15:52 | 36.05457 | -86.14453 | 16948 ft | 365 kts | 71° |
| 2026-04-22 15:53 | 36.06191 | -86.11434 | 17895 ft | 369 kts | 71° |
| 2026-04-22 15:53 | 36.06911 | -86.08372 | 18774 ft | 374 kts | 75° |
| 2026-04-22 15:53 | 36.07085 | -86.05141 | 19503 ft | 383 kts | 92° |
| 2026-04-22 15:53 | 36.06852 | -86.01846 | 20297 ft | 387 kts | 94° |
| 2026-04-22 15:54 | 36.06576 | -85.98511 | 21033 ft | 393 kts | 94° |
| 2026-04-22 15:54 | 36.06300 | -85.95131 | 21776 ft | 398 kts | 94° |
| 2026-04-22 15:54 | 36.06036 | -85.91710 | 22521 ft | 403 kts | 94° |
| 2026-04-22 15:54 | 36.05783 | -85.88238 | 23236 ft | 408 kts | 93° |
| 2026-04-22 15:55 | 36.05534 | -85.84725 | 23946 ft | 413 kts | 93° |
| 2026-04-22 15:55 | 36.05283 | -85.81172 | 24556 ft | 416 kts | 93° |
| 2026-04-22 15:55 | 36.05030 | -85.77601 | 25201 ft | 418 kts | 93° |
| 2026-04-22 15:55 | 36.04779 | -85.74006 | 25844 ft | 421 kts | 92° |
| 2026-04-22 15:56 | 36.04529 | -85.70395 | 26458 ft | 424 kts | 92° |
| 2026-04-22 15:56 | 36.04277 | -85.66755 | 27056 ft | 427 kts | 92° |
| 2026-04-22 15:56 | 36.04022 | -85.63088 | 27654 ft | 430 kts | 92° |
| 2026-04-22 15:56 | 36.03763 | -85.59395 | 28221 ft | 433 kts | 92° |
| 2026-04-22 15:57 | 36.03502 | -85.55678 | 28786 ft | 436 kts | 92° |
| 2026-04-22 15:57 | 36.03237 | -85.51940 | 29340 ft | 438 kts | 91° |
| 2026-04-22 15:57 | 36.02969 | -85.48173 | 29884 ft | 441 kts | 91° |
| 2026-04-22 15:57 | 36.02698 | -85.44388 | 30396 ft | 444 kts | 91° |
| 2026-04-22 15:58 | 36.02424 | -85.40576 | 30816 ft | 447 kts | 91° |
| 2026-04-22 15:58 | 36.02146 | -85.36734 | 31201 ft | 450 kts | 91° |
| 2026-04-22 15:58 | 36.01866 | -85.32871 | 31568 ft | 453 kts | 91° |
| 2026-04-22 15:58 | 36.01583 | -85.28979 | 31931 ft | 456 kts | 91° |
| 2026-04-22 15:59 | 36.01300 | -85.25114 | 32280 ft | 459 kts | 91° |
| 2026-04-22 15:59 | 36.01011 | -85.21176 | 32621 ft | 462 kts | 91° |
| 2026-04-22 15:59 | 36.00718 | -85.17217 | 32955 ft | 464 kts | 91° |
| 2026-04-22 15:59 | 36.00423 | -85.13241 | 33339 ft | 465 kts | 91° |
| 2026-04-22 16:00 | 36.00127 | -85.09275 | 33812 ft | 463 kts | 91° |
| 2026-04-22 16:00 | 35.99809 | -85.05323 | 34274 ft | 463 kts | 95° |
| 2026-04-22 16:00 | 35.98988 | -85.01454 | 34588 ft | 469 kts | 105° |
| 2026-04-22 16:00 | 35.97882 | -84.97659 | 34953 ft | 469 kts | 107° |
| 2026-04-22 16:01 | 35.96727 | -84.93893 | 35302 ft | 469 kts | 107° |
| 2026-04-22 16:01 | 35.95561 | -84.90125 | 35630 ft | 469 kts | 107° |
| 2026-04-22 16:01 | 35.94408 | -84.86366 | 35965 ft | 468 kts | 107° |
| 2026-04-22 16:01 | 35.93269 | -84.82606 | 36317 ft | 468 kts | 107° |
| 2026-04-22 16:02 | 35.92143 | -84.78843 | 36650 ft | 467 kts | 107° |
| 2026-04-22 16:02 | 35.91024 | -84.75077 | 36941 ft | 467 kts | 107° |
| 2026-04-22 16:02 | 35.89910 | -84.71310 | 37257 ft | 467 kts | 107° |
| 2026-04-22 16:02 | 35.88799 | -84.67552 | 37573 ft | 467 kts | 107° |
| 2026-04-22 16:03 | 35.87686 | -84.63789 | 37873 ft | 467 kts | 107° |
| 2026-04-22 16:03 | 35.86573 | -84.60032 | 38185 ft | 466 kts | 107° |
| 2026-04-22 16:03 | 35.85460 | -84.56283 | 38508 ft | 465 kts | 107° |
| 2026-04-22 16:03 | 35.84346 | -84.52537 | 38762 ft | 466 kts | 107° |
| 2026-04-22 16:04 | 35.83229 | -84.48788 | 39012 ft | 466 kts | 107° |
| 2026-04-22 16:04 | 35.82110 | -84.45037 | 39209 ft | 466 kts | 107° |
| 2026-04-22 16:04 | 35.79856 | -84.37492 | 39259 ft | 470 kts | 107° |
| 2026-04-22 16:05 | 35.77596 | -84.29955 | 39260 ft | 468 kts | 107° |
| 2026-04-22 16:05 | 35.75339 | -84.22450 | 39256 ft | 467 kts | 108° |
| 2026-04-22 16:06 | 35.73086 | -84.14973 | 39276 ft | 465 kts | 108° |
| 2026-04-22 16:06 | 35.70832 | -84.07512 | 39271 ft | 465 kts | 108° |
| 2026-04-22 16:07 | 35.68575 | -84.00060 | 39274 ft | 465 kts | 108° |
| 2026-04-22 16:07 | 35.66311 | -83.92604 | 39265 ft | 466 kts | 108° |
| 2026-04-22 16:08 | 35.64039 | -83.85140 | 39265 ft | 466 kts | 108° |
| 2026-04-22 16:08 | 35.61775 | -83.77724 | 39264 ft | 467 kts | 108° |
| 2026-04-22 16:09 | 35.59485 | -83.70243 | 39254 ft | 468 kts | 108° |
| 2026-04-22 16:09 | 35.57170 | -83.62696 | 39253 ft | 470 kts | 108° |
| 2026-04-22 16:10 | 35.54875 | -83.55237 | 39253 ft | 470 kts | 108° |
| 2026-04-22 16:10 | 35.52558 | -83.47728 | 39258 ft | 471 kts | 109° |
| 2026-04-22 16:11 | 35.50234 | -83.40211 | 39256 ft | 471 kts | 109° |
| 2026-04-22 16:11 | 35.47898 | -83.32677 | 39245 ft | 473 kts | 109° |
| 2026-04-22 16:12 | 35.45554 | -83.25136 | 39260 ft | 473 kts | 109° |
| 2026-04-22 16:12 | 35.43205 | -83.17598 | 39247 ft | 473 kts | 109° |
| 2026-04-22 16:13 | 35.40852 | -83.10068 | 39265 ft | 473 kts | 109° |
| 2026-04-22 16:13 | 35.38493 | -83.02537 | 39248 ft | 473 kts | 109° |
| 2026-04-22 16:14 | 35.36130 | -82.95014 | 39259 ft | 473 kts | 109° |
| 2026-04-22 16:14 | 35.33760 | -82.87488 | 39255 ft | 474 kts | 109° |
| 2026-04-22 16:15 | 35.31385 | -82.79964 | 39256 ft | 474 kts | 109° |
| 2026-04-22 16:15 | 35.29004 | -82.72441 | 39270 ft | 474 kts | 109° |
| 2026-04-22 16:16 | 35.26615 | -82.64909 | 39277 ft | 475 kts | 109° |
| 2026-04-22 16:16 | 35.24217 | -82.57369 | 39268 ft | 476 kts | 109° |
| 2026-04-22 16:17 | 35.21812 | -82.49828 | 39259 ft | 476 kts | 109° |
| 2026-04-22 16:17 | 35.19415 | -82.42332 | 39249 ft | 477 kts | 109° |
| 2026-04-22 16:18 | 35.16995 | -82.34782 | 39232 ft | 477 kts | 109° |
| 2026-04-22 16:18 | 35.14570 | -82.27233 | 39247 ft | 478 kts | 109° |
| 2026-04-22 16:19 | 35.12136 | -82.19675 | 39243 ft | 478 kts | 109° |
| 2026-04-22 16:19 | 35.09695 | -82.12116 | 39243 ft | 479 kts | 109° |
| 2026-04-22 16:20 | 35.07246 | -82.04549 | 39251 ft | 479 kts | 109° |
| 2026-04-22 16:20 | 35.04790 | -81.96978 | 39255 ft | 480 kts | 109° |
| 2026-04-22 16:21 | 35.02310 | -81.89412 | 39251 ft | 481 kts | 110° |
| 2026-04-22 16:21 | 34.99740 | -81.81884 | 39256 ft | 481 kts | 111° |
| 2026-04-22 16:22 | 34.96286 | -81.71863 | 39249 ft | 482 kts | 111° |
| 2026-04-22 16:23 | 34.92400 | -81.60561 | 39244 ft | 482 kts | 110° |
| 2026-04-22 16:23 | 34.89805 | -81.53019 | 39246 ft | 483 kts | 111° |
| 2026-04-22 16:24 | 34.85898 | -81.41699 | 39255 ft | 484 kts | 111° |
| 2026-04-22 16:25 | 34.83283 | -81.34150 | 39263 ft | 484 kts | 111° |
| 2026-04-22 16:25 | 34.79347 | -81.22817 | 39264 ft | 485 kts | 111° |
| 2026-04-22 16:26 | 34.76712 | -81.15254 | 39259 ft | 486 kts | 111° |
| 2026-04-22 16:26 | 34.74065 | -81.07675 | 39178 ft | 489 kts | 111° |
| 2026-04-22 16:27 | 34.72725 | -81.03842 | 38552 ft | 495 kts | 111° |
| 2026-04-22 16:27 | 34.71381 | -81.00004 | 37915 ft | 492 kts | 111° |
| 2026-04-22 16:27 | 34.70041 | -80.96183 | 37270 ft | 491 kts | 111° |
| 2026-04-22 16:27 | 34.68703 | -80.92375 | 36579 ft | 490 kts | 111° |
| 2026-04-22 16:28 | 34.67365 | -80.88569 | 35886 ft | 489 kts | 111° |
| 2026-04-22 16:28 | 34.66024 | -80.84759 | 35125 ft | 491 kts | 112° |
| 2026-04-22 16:28 | 34.64678 | -80.80940 | 34325 ft | 493 kts | 112° |
| 2026-04-22 16:28 | 34.63330 | -80.77120 | 33692 ft | 490 kts | 112° |
| 2026-04-22 16:29 | 34.61992 | -80.73335 | 33056 ft | 486 kts | 112° |
| 2026-04-22 16:29 | 34.60669 | -80.69596 | 32475 ft | 482 kts | 112° |
| 2026-04-22 16:29 | 34.59363 | -80.65909 | 31913 ft | 477 kts | 112° |
| 2026-04-22 16:29 | 34.58057 | -80.62226 | 31362 ft | 473 kts | 112° |
| 2026-04-22 16:30 | 34.57180 | -80.59755 | 31000 ft | 471 kts | 112° |
| 2026-04-22 16:30 | 34.55474 | -80.54951 | 30292 ft | 466 kts | 112° |
| 2026-04-22 16:30 | 34.54193 | -80.51351 | 29658 ft | 462 kts | 112° |
| 2026-04-22 16:30 | 34.52928 | -80.47799 | 29067 ft | 457 kts | 112° |
| 2026-04-22 16:31 | 34.51675 | -80.44284 | 28489 ft | 452 kts | 112° |
| 2026-04-22 16:31 | 34.50433 | -80.40806 | 27910 ft | 447 kts | 112° |
| 2026-04-22 16:31 | 34.49203 | -80.37365 | 27348 ft | 443 kts | 112° |
| 2026-04-22 16:31 | 34.47983 | -80.33955 | 26790 ft | 439 kts | 112° |
| 2026-04-22 16:32 | 34.46773 | -80.30574 | 26243 ft | 435 kts | 112° |
| 2026-04-22 16:32 | 34.45573 | -80.27227 | 25700 ft | 432 kts | 111° |
| 2026-04-22 16:32 | 34.44381 | -80.23904 | 25150 ft | 429 kts | 111° |
| 2026-04-22 16:32 | 34.43195 | -80.20601 | 24589 ft | 426 kts | 111° |
| 2026-04-22 16:33 | 34.42015 | -80.17319 | 24028 ft | 424 kts | 111° |
| 2026-04-22 16:33 | 34.40840 | -80.14055 | 23404 ft | 422 kts | 111° |
| 2026-04-22 16:33 | 34.39671 | -80.10812 | 22801 ft | 418 kts | 111° |
| 2026-04-22 16:33 | 34.38515 | -80.07605 | 22235 ft | 414 kts | 111° |
| 2026-04-22 16:34 | 34.37369 | -80.04432 | 21681 ft | 409 kts | 111° |
| 2026-04-22 16:34 | 34.36234 | -80.01293 | 21137 ft | 405 kts | 111° |
| 2026-04-22 16:34 | 34.35110 | -79.98184 | 20602 ft | 402 kts | 111° |
| 2026-04-22 16:34 | 34.33993 | -79.95098 | 20059 ft | 398 kts | 111° |
| 2026-04-22 16:35 | 34.32885 | -79.92040 | 19542 ft | 395 kts | 111° |
| 2026-04-22 16:35 | 34.31799 | -79.89045 | 19014 ft | 393 kts | 111° |
| 2026-04-22 16:35 | 34.30703 | -79.86025 | 18446 ft | 391 kts | 111° |
| 2026-04-22 16:35 | 34.29614 | -79.83029 | 17860 ft | 388 kts | 111° |
| 2026-04-22 16:36 | 34.28535 | -79.80061 | 17295 ft | 384 kts | 111° |
| 2026-04-22 16:36 | 34.27463 | -79.77118 | 16754 ft | 380 kts | 112° |
| 2026-04-22 16:36 | 34.26406 | -79.74215 | 16204 ft | 376 kts | 112° |
| 2026-04-22 16:36 | 34.25349 | -79.71312 | 15488 ft | 378 kts | 112° |
| 2026-04-22 16:37 | 34.24292 | -79.68418 | 14929 ft | 375 kts | 112° |
| 2026-04-22 16:37 | 34.23225 | -79.65557 | 14404 ft | 372 kts | 115° |
| 2026-04-22 16:37 | 34.21937 | -79.62885 | 14152 ft | 361 kts | 121° |
| 2026-04-22 16:37 | 34.20591 | -79.60353 | 13681 ft | 356 kts | 122° |
| 2026-04-22 16:38 | 34.19242 | -79.57869 | 13178 ft | 352 kts | 122° |
| 2026-04-22 16:38 | 34.17903 | -79.55405 | 12652 ft | 349 kts | 122° |
| 2026-04-22 16:38 | 34.16583 | -79.52960 | 12145 ft | 346 kts | 121° |
| 2026-04-22 16:38 | 34.15280 | -79.50532 | 11640 ft | 343 kts | 121° |
| 2026-04-22 16:39 | 34.13994 | -79.48128 | 11133 ft | 340 kts | 121° |
| 2026-04-22 16:39 | 34.12721 | -79.45740 | 10632 ft | 337 kts | 121° |
| 2026-04-22 16:39 | 34.11462 | -79.43375 | 10290 ft | 329 kts | 121° |
| 2026-04-22 16:39 | 34.10251 | -79.41103 | 10142 ft | 316 kts | 121° |
| 2026-04-22 16:40 | 34.09084 | -79.38913 | 9958 ft | 305 kts | 121° |
| 2026-04-22 16:40 | 34.07963 | -79.36810 | 9839 ft | 292 kts | 120° |
| 2026-04-22 16:40 | 34.05722 | -79.32599 | 8777 ft | 300 kts | 121° |
| 2026-04-22 16:41 | 34.04597 | -79.30490 | 8387 ft | 298 kts | 121° |
| 2026-04-22 16:41 | 34.03481 | -79.28396 | 7988 ft | 296 kts | 121° |
| 2026-04-22 16:41 | 34.02373 | -79.26321 | 7615 ft | 293 kts | 121° |
| 2026-04-22 16:41 | 34.01268 | -79.24256 | 7241 ft | 293 kts | 121° |
| 2026-04-22 16:42 | 34.00167 | -79.22192 | 6879 ft | 292 kts | 121° |
| 2026-04-22 16:42 | 33.99067 | -79.20134 | 6461 ft | 292 kts | 121° |
| 2026-04-22 16:42 | 33.97968 | -79.18085 | 6071 ft | 290 kts | 121° |
| 2026-04-22 16:42 | 33.96879 | -79.16050 | 5690 ft | 288 kts | 121° |
| 2026-04-22 16:43 | 33.95797 | -79.14031 | 5310 ft | 286 kts | 121° |
| 2026-04-22 16:43 | 33.94724 | -79.12024 | 4951 ft | 284 kts | 121° |
| 2026-04-22 16:43 | 33.93652 | -79.10022 | 4582 ft | 283 kts | 121° |
| 2026-04-22 16:43 | 33.92595 | -79.08055 | 4163 ft | 275 kts | 121° |
| 2026-04-22 16:44 | 33.91581 | -79.06163 | 3862 ft | 263 kts | 122° |
| 2026-04-22 16:44 | 33.90617 | -79.04367 | 3524 ft | 255 kts | 122° |
| 2026-04-22 16:44 | 33.89682 | -79.02631 | 3433 ft | 239 kts | 121° |
| 2026-04-22 16:44 | 33.88784 | -79.00966 | 3260 ft | 235 kts | 122° |
| 2026-04-22 16:45 | 33.87912 | -78.99344 | 3203 ft | 227 kts | 122° |
| 2026-04-22 16:45 | 33.86839 | -78.98047 | 3083 ft | 215 kts | 155° |
| 2026-04-22 16:45 | 33.85505 | -78.97460 | 3103 ft | 195 kts | 159° |
| 2026-04-22 16:45 | 33.84248 | -78.96965 | 2935 ft | 186 kts | 164° |
| 2026-04-22 16:46 | 33.83007 | -78.96608 | 2692 ft | 181 kts | 167° |
| 2026-04-22 16:46 | 33.81779 | -78.96293 | 2523 ft | 183 kts | 167° |
| 2026-04-22 16:46 | 33.80519 | -78.95964 | 2276 ft | 185 kts | 166° |
| 2026-04-22 16:46 | 33.79249 | -78.95680 | 1968 ft | 184 kts | 166° |
| 2026-04-22 16:47 | 33.78003 | -78.95360 | 1850 ft | 184 kts | 166° |
| 2026-04-22 16:47 | 33.76722 | -78.95016 | 1473 ft | 190 kts | 165° |
| 2026-04-22 16:47 | 33.75455 | -78.94722 | 1269 ft | 181 kts | 167° |
| 2026-04-22 16:47 | 33.74263 | -78.94487 | 1032 ft | 167 kts | 167° |
| 2026-04-22 16:48 | 33.73178 | -78.94158 | 806 ft | 150 kts | 162° |
| 2026-04-22 16:48 | 33.72231 | -78.93874 | 712 ft | 133 kts | 168° |
| 2026-04-22 16:48 | 33.71325 | -78.93654 | 475 ft | 131 kts | 170° |
| 2026-04-22 16:48 | 33.70460 | -78.93449 | 276 ft | 123 kts | 171° |
| 2026-04-22 16:49 | 33.69612 | -78.93236 | 137 ft | 122 kts | 172° |
| 2026-04-22 16:49 | 33.68813 | -78.93031 | 32 ft | 105 kts | 168° |
| 2026-04-22 16:49 | 33.68314 | -78.92911 | 30 ft | 41 kts | 167° |
| 2026-04-22 16:49 | 33.68130 | -78.92855 | 29 ft | 10 kts | 138° |
| 2026-04-22 16:50 | 33.68134 | -78.92774 | 31 ft | 10 kts | 70° |
| 2026-04-22 16:50 | 33.68161 | -78.92698 | 31 ft | 10 kts | 66° |
| 2026-04-22 16:50 | 33.68176 | -78.92611 | 31 ft | 13 kts | 86° |
| 2026-04-22 16:50 | 33.68228 | -78.92543 | 31 ft | 13 kts | 8° |
| 2026-04-22 16:51 | 33.68261 | -78.92480 | 31 ft | 10 kts | 103° |
| 2026-04-22 16:51 | 33.68254 | -78.92423 | 31 ft | 4 kts | 94° |
| 2026-04-22 16:51 | 33.68253 | -78.92409 | 31 ft | 0 kts | 93° |